Terminal Aerodrome Forecast
Issued by NWS Atlanta, GA

Home | Current Version | Previous Version | Text Only | Print | Product List | Glossary On
Versions: 1 2 3 4 5 6 7 8 9 10 11 12 13 14
232
FTUS42 KFFC 061735
TAFCSG
TAF
KCSG 061735Z 0618/0718 08006KT P6SM SCT100 BKN250
     FM070300 01005KT P6SM BKN250
     FM071500 32012KT P6SM SKC=

USA.gov is the U.S. government's official web portal to all federal, state and local government web resources and services.